createdAt,value
2023-05-04T00:01:44.194Z,6.80
2023-05-04T00:04:31.205Z,6.80
2023-05-04T00:07:18.184Z,6.70
2023-05-04T00:10:05.470Z,6.70
2023-05-04T00:12:46.151Z,6.70
2023-05-04T00:15:33.217Z,6.70
2023-05-04T00:18:14.184Z,6.70
2023-05-04T00:21:01.515Z,6.60
2023-05-04T00:23:41.096Z,6.50
2023-05-04T00:26:28.228Z,6.50
2023-05-04T00:29:08.138Z,6.50
2023-05-04T00:31:55.284Z,6.50
2023-05-04T00:34:36.134Z,6.50
2023-05-04T00:37:23.370Z,6.50
2023-05-04T00:40:10.211Z,6.50
2023-05-04T00:42:50.243Z,6.50
2023-05-04T00:45:37.125Z,6.60
2023-05-04T00:48:17.234Z,6.60
2023-05-04T00:51:04.127Z,6.60
2023-05-04T00:53:45.241Z,6.60
2023-05-04T00:56:32.169Z,6.60
2023-05-04T00:59:14.036Z,6.60
2023-05-04T01:02:01.205Z,6.60
2023-05-04T01:04:41.257Z,6.60
2023-05-04T01:07:36.209Z,6.60
2023-05-04T01:10:26.153Z,6.60
2023-05-04T01:13:13.997Z,6.60
2023-05-04T01:16:02.131Z,6.50
2023-05-04T01:18:49.309Z,6.50
2023-05-04T01:21:29.178Z,6.40
2023-05-04T01:24:16.417Z,6.30
2023-05-04T01:27:00.230Z,6.30
2023-05-04T01:29:55.361Z,6.20
2023-05-04T01:32:36.266Z,6.20
2023-05-04T01:35:23.281Z,6.20
2023-05-04T01:38:03.225Z,6.10
2023-05-04T01:40:50.313Z,6.10
2023-05-04T01:43:31.186Z,6.00
2023-05-04T01:46:18.460Z,6.00
2023-05-04T01:48:58.244Z,6.00
2023-05-04T01:51:47.014Z,6.00
2023-05-04T01:54:27.227Z,5.90
2023-05-04T01:57:21.257Z,5.90
2023-05-04T02:00:08.398Z,5.90
2023-05-04T02:02:52.388Z,5.90
2023-05-04T02:05:41.011Z,5.80
2023-05-04T02:08:23.216Z,5.80
2023-05-04T02:11:10.381Z,5.80
2023-05-04T02:13:52.207Z,5.80
2023-05-04T02:16:40.018Z,5.70
2023-05-04T02:19:20.243Z,5.80
2023-05-04T02:22:07.341Z,5.80
2023-05-04T02:24:47.252Z,5.70
2023-05-04T02:27:34.389Z,5.70
2023-05-04T02:30:15.268Z,5.70
2023-05-04T02:32:55.501Z,5.70
2023-05-04T02:35:42.270Z,5.70
2023-05-04T02:38:29.370Z,5.60
2023-05-04T02:41:24.324Z,5.60
2023-05-04T02:44:11.340Z,5.60
2023-05-04T02:46:51.328Z,5.60
2023-05-04T02:49:45.342Z,5.60
2023-05-04T02:52:32.362Z,5.60
2023-05-04T02:55:13.354Z,5.60
2023-05-04T02:58:00.458Z,5.60
2023-05-04T03:00:40.264Z,5.60
2023-05-04T03:03:27.361Z,5.60
2023-05-04T03:06:09.292Z,5.70
2023-05-04T03:08:57.805Z,5.70
2023-05-04T03:11:37.351Z,5.70
2023-05-04T03:14:24.479Z,5.70
2023-05-04T03:17:04.300Z,5.70
2023-05-04T03:19:51.802Z,5.70
2023-05-04T03:22:32.381Z,5.70
2023-05-04T03:25:19.558Z,5.70
2023-05-04T03:27:59.355Z,5.70
2023-05-04T03:30:46.449Z,5.70
2023-05-04T03:33:28.276Z,5.70
2023-05-04T03:36:15.791Z,5.70
2023-05-04T03:38:56.404Z,5.70
2023-05-04T03:41:59.330Z,5.80
2023-05-04T03:44:46.324Z,5.90
2023-05-04T03:47:33.446Z,6.00
2023-05-04T03:50:21.657Z,6.10
2023-05-04T03:53:01.326Z,6.30
2023-05-04T03:55:48.526Z,6.40
2023-05-04T03:58:29.311Z,6.50
2023-05-04T04:01:18.590Z,6.60
2023-05-04T04:03:58.457Z,6.60
2023-05-04T04:06:45.972Z,6.60
2023-05-04T04:09:26.350Z,6.50
2023-05-04T04:12:13.534Z,6.40
2023-05-04T04:14:55.338Z,6.40
2023-05-04T04:17:42.484Z,6.40
2023-05-04T04:20:23.404Z,6.40
2023-05-04T04:23:10.473Z,6.30
2023-05-04T04:25:51.390Z,6.50
2023-05-04T04:28:39.461Z,6.50
2023-05-04T04:31:20.445Z,6.60
2023-05-04T04:34:00.889Z,6.70
2023-05-04T04:36:47.383Z,6.80
2023-05-04T04:39:27.827Z,6.90
2023-05-04T04:42:14.427Z,7.00
2023-05-04T04:45:05.605Z,7.00
2023-05-04T04:47:46.413Z,6.90
2023-05-04T04:50:33.429Z,6.80
2023-05-04T04:53:13.739Z,6.80
2023-05-04T04:56:00.376Z,6.70
2023-05-04T04:58:40.734Z,6.70
2023-05-04T05:01:27.431Z,6.70
2023-05-04T05:04:07.828Z,6.80
2023-05-04T05:06:54.398Z,7.00
2023-05-04T05:09:34.691Z,7.10
2023-05-04T05:12:21.409Z,7.10
2023-05-04T05:15:03.377Z,7.20
2023-05-04T05:17:50.517Z,7.20
2023-05-04T05:20:34.655Z,7.10
2023-05-04T05:23:21.386Z,7.20
2023-05-04T05:26:03.285Z,7.40
2023-05-04T05:28:50.424Z,7.50
2023-05-04T05:31:30.783Z,7.60
2023-05-04T05:34:17.416Z,7.70
2023-05-04T05:36:58.392Z,7.70
2023-05-04T05:39:45.473Z,7.70
2023-05-04T05:42:32.558Z,7.80
2023-05-04T05:45:14.466Z,7.80
2023-05-04T05:48:01.674Z,7.80
2023-05-04T05:50:41.532Z,7.70
2023-05-04T05:53:28.580Z,7.70
2023-05-04T05:56:08.460Z,7.80
2023-05-04T05:59:04.485Z,7.90
2023-05-04T06:01:54.200Z,8.10
2023-05-04T06:04:34.560Z,8.10
2023-05-04T06:07:22.087Z,8.20
2023-05-04T06:10:01.494Z,8.30
2023-05-04T06:12:48.700Z,8.10
2023-05-04T06:15:29.590Z,8.00
2023-05-04T06:18:16.664Z,8.10
2023-05-04T06:21:03.464Z,8.20
2023-05-04T06:23:50.573Z,8.30
2023-05-04T06:26:37.489Z,8.40
2023-05-04T06:29:24.596Z,8.30
2023-05-04T06:32:05.599Z,8.50
2023-05-04T06:34:52.592Z,8.60
2023-05-04T06:37:39.489Z,8.50
2023-05-04T06:40:33.514Z,8.30
2023-05-04T06:43:20.514Z,8.10
2023-05-04T06:46:00.806Z,7.90
2023-05-04T06:48:47.528Z,8.00
2023-05-04T06:51:27.723Z,8.00
2023-05-04T06:54:14.501Z,8.10
2023-05-04T06:57:01.520Z,8.10
2023-05-04T06:59:48.616Z,8.20
2023-05-04T07:02:28.566Z,8.20
2023-05-04T07:05:15.627Z,8.40
2023-05-04T07:07:56.610Z,8.30
2023-05-04T07:10:44.323Z,8.40
2023-05-04T07:19:11.610Z,9.80
2023-05-04T07:21:51.751Z,9.80
2023-05-04T07:24:42.647Z,10.10
2023-05-04T07:27:22.755Z,10.50
2023-05-04T07:30:09.574Z,10.80
2023-05-04T07:32:56.812Z,11.20
2023-05-04T07:35:36.580Z,11.40
2023-05-04T07:38:23.683Z,11.60
2023-05-04T07:41:03.527Z,11.80
2023-05-04T07:43:50.562Z,12.10
2023-05-04T07:46:30.955Z,12.10
2023-05-04T07:49:17.576Z,12.20
2023-05-04T07:51:57.669Z,13.10
2023-05-04T07:54:44.673Z,14.10
2023-05-04T07:57:24.709Z,15.00
2023-05-04T08:00:16.551Z,16.30
2023-05-04T08:02:57.286Z,17.70
2023-05-04T08:05:43.570Z,18.50
2023-05-04T08:08:23.680Z,18.50
2023-05-04T08:11:19.047Z,18.20
2023-05-04T08:14:00.701Z,18.30
2023-05-04T08:16:47.797Z,18.80
2023-05-04T08:19:28.707Z,18.80
2023-05-04T08:24:50.254Z,20.80
2023-05-04T08:27:36.665Z,21.40
2023-05-04T08:30:17.298Z,20.70
2023-05-04T08:33:03.674Z,19.50
2023-05-04T08:35:44.003Z,18.80
2023-05-04T08:38:30.709Z,18.00
2023-05-04T08:41:24.640Z,17.80
2023-05-04T08:44:13.707Z,17.80
2023-05-04T08:47:01.706Z,17.40
2023-05-04T08:49:48.785Z,17.00
2023-05-04T08:52:30.137Z,16.90
2023-05-04T08:55:11.210Z,17.10
2023-05-04T08:57:57.650Z,17.20
2023-05-04T09:00:44.919Z,17.60
2023-05-04T09:03:25.782Z,17.80
2023-05-04T09:11:14.262Z,19.90
2023-05-04T09:14:00.671Z,20.30
2023-05-04T09:16:47.796Z,20.90
2023-05-04T09:19:27.806Z,21.30
2023-05-04T09:22:21.578Z,20.60
2023-05-04T09:25:22.767Z,20.40
2023-05-04T09:28:03.065Z,20.20
2023-05-04T09:30:49.711Z,20.30
2023-05-04T09:33:30.122Z,20.50
2023-05-04T09:36:27.667Z,20.70
2023-05-04T09:39:19.346Z,20.80
2023-05-04T09:44:46.904Z,21.80
2023-05-04T09:47:26.757Z,22.70
2023-05-04T09:50:31.780Z,22.90
2023-05-04T09:53:12.077Z,22.70
2023-05-04T09:56:02.558Z,22.00
2023-05-04T09:58:49.962Z,21.50
2023-05-04T10:01:30.784Z,21.00
2023-05-04T10:04:17.825Z,21.30
2023-05-04T10:06:58.796Z,21.50
2023-05-04T10:09:46.136Z,21.70
2023-05-04T10:12:25.728Z,21.30
2023-05-04T10:15:13.851Z,21.20
2023-05-04T10:17:53.831Z,21.50
2023-05-04T10:20:58.930Z,21.30
2023-05-04T10:23:57.750Z,21.10
2023-05-04T10:26:54.860Z,21.30
2023-05-04T10:29:41.848Z,21.20
2023-05-04T10:32:28.859Z,20.80
2023-05-04T10:35:18.796Z,20.50
2023-05-04T10:38:00.847Z,20.40
2023-05-04T10:40:55.853Z,20.60
2023-05-04T10:43:42.766Z,19.90
2023-05-04T10:46:26.908Z,20.10
2023-05-04T10:49:22.940Z,20.40
2023-05-04T10:52:18.070Z,20.30
2023-05-04T10:55:07.052Z,20.00
2023-05-04T10:57:56.997Z,19.70
2023-05-04T11:00:44.829Z,19.30
2023-05-04T11:03:25.216Z,19.60
2023-05-04T11:06:26.817Z,19.20
2023-05-04T11:09:10.758Z,19.40
2023-05-04T11:11:58.827Z,19.70
2023-05-04T11:14:48.819Z,20.20
2023-05-04T11:17:35.963Z,20.60
2023-05-04T11:20:16.113Z,20.60
2023-05-04T11:23:03.880Z,20.60
2023-05-04T11:25:44.878Z,20.40
2023-05-04T11:28:31.802Z,20.30
2023-05-04T11:31:28.876Z,20.30
2023-05-04T11:34:16.759Z,20.50
2023-05-04T11:36:56.937Z,20.60
2023-05-04T11:39:43.976Z,20.30
2023-05-04T11:42:23.880Z,20.30
2023-05-04T11:45:10.978Z,20.30
2023-05-04T11:47:51.859Z,20.00
2023-05-04T11:50:32.530Z,20.10
2023-05-04T11:53:27.863Z,20.30
2023-05-04T11:56:16.010Z,20.70
2023-05-04T11:58:56.006Z,20.70
2023-05-04T12:01:42.883Z,21.00
2023-05-04T12:04:23.062Z,20.80
2023-05-04T12:07:12.954Z,20.20
2023-05-04T12:09:53.102Z,19.60
2023-05-04T12:12:42.956Z,19.40
2023-05-04T12:15:34.110Z,19.00
2023-05-04T12:18:27.912Z,18.50
2023-05-04T12:21:18.686Z,18.50
2023-05-04T12:24:05.911Z,18.00
2023-05-04T12:26:46.174Z,18.30
2023-05-04T12:29:32.928Z,18.60
2023-05-04T12:32:13.046Z,18.90
2023-05-04T12:34:59.977Z,18.10
2023-05-04T12:37:40.239Z,17.00
2023-05-04T12:40:28.629Z,16.60
2023-05-04T12:43:22.930Z,16.10
2023-05-04T12:46:10.092Z,15.30
2023-05-04T12:48:49.989Z,14.70
2023-05-04T12:51:37.059Z,14.00
2023-05-04T12:54:16.968Z,13.80
2023-05-04T12:57:04.095Z,13.50
2023-05-04T12:59:43.915Z,13.50
2023-05-04T13:02:31.135Z,13.30
2023-05-04T13:05:10.928Z,12.90
2023-05-04T13:07:58.305Z,12.90
2023-05-04T13:10:38.224Z,12.70
2023-05-04T13:13:28.646Z,12.60
2023-05-04T13:16:10.012Z,12.50
2023-05-04T13:18:57.228Z,12.50
2023-05-04T13:21:38.092Z,12.50
2023-05-04T13:24:25.081Z,12.10
2023-05-04T13:27:05.005Z,11.90
2023-05-04T13:29:52.112Z,11.80
2023-05-04T13:32:35.092Z,11.70
2023-05-04T13:35:22.296Z,11.50
2023-05-04T13:38:01.989Z,11.50
2023-05-04T13:40:57.181Z,11.60
2023-05-04T13:43:37.564Z,11.60
2023-05-04T13:46:23.988Z,11.40
2023-05-04T13:49:11.292Z,11.30
2023-05-04T13:51:51.998Z,11.30
2023-05-04T13:54:39.188Z,11.30
2023-05-04T13:57:20.015Z,11.40
2023-05-04T14:00:08.465Z,11.30
2023-05-04T14:02:49.140Z,11.40
2023-05-04T14:05:36.559Z,11.40
2023-05-04T14:08:18.090Z,11.30
2023-05-04T14:11:05.119Z,11.30
2023-05-04T14:13:45.028Z,11.40
2023-05-04T14:16:32.204Z,11.40
2023-05-04T14:19:12.047Z,11.00
2023-05-04T14:21:59.120Z,10.90
2023-05-04T14:24:39.045Z,10.90
2023-05-04T14:27:27.518Z,10.90
2023-05-04T14:30:08.250Z,10.90
2023-05-04T14:32:58.294Z,10.80
2023-05-04T14:35:38.401Z,10.80
2023-05-04T14:38:25.196Z,10.80
2023-05-04T14:41:20.072Z,10.70
2023-05-04T14:44:07.121Z,10.60
2023-05-04T14:46:47.471Z,10.50
2023-05-04T14:49:37.226Z,10.20
2023-05-04T14:52:18.235Z,9.90
2023-05-04T14:55:05.162Z,9.90
2023-05-04T14:57:45.198Z,9.80
2023-05-04T15:00:32.061Z,9.80
2023-05-04T15:03:13.349Z,9.70
2023-05-04T15:06:00.147Z,9.70
2023-05-04T15:08:40.158Z,9.70
2023-05-04T15:11:27.099Z,9.80
2023-05-04T15:14:07.234Z,9.80
2023-05-04T15:16:54.080Z,9.80
2023-05-04T15:19:34.369Z,9.70
2023-05-04T15:22:21.092Z,9.40
2023-05-04T15:25:01.942Z,9.30
2023-05-04T15:27:50.163Z,9.20
2023-05-04T15:30:30.239Z,9.30
2023-05-04T15:33:17.096Z,9.30
2023-05-04T15:35:57.224Z,9.40
2023-05-04T15:38:44.122Z,9.50
2023-05-04T15:41:38.122Z,9.60
2023-05-04T15:44:27.143Z,9.60
2023-05-04T15:47:09.667Z,9.50
2023-05-04T15:49:56.117Z,9.50
2023-05-04T15:52:36.321Z,9.50
2023-05-04T15:55:26.313Z,9.40
2023-05-04T15:58:13.130Z,9.40
2023-05-04T16:01:03.976Z,9.40
2023-05-04T16:03:45.271Z,9.20
2023-05-04T16:06:34.243Z,9.10
2023-05-04T16:09:14.132Z,9.10
2023-05-04T16:12:02.318Z,9.00
2023-05-04T16:14:43.201Z,8.70
2023-05-04T16:17:35.101Z,8.50
2023-05-04T16:20:16.153Z,8.40
2023-05-04T16:23:03.267Z,8.30
2023-05-04T16:25:43.175Z,8.20
2023-05-04T16:28:30.324Z,8.20
2023-05-04T16:31:14.182Z,8.30
2023-05-04T16:34:01.621Z,8.20
2023-05-04T16:36:41.190Z,8.20
2023-05-04T16:39:30.266Z,8.20
2023-05-04T16:42:11.295Z,8.20
2023-05-04T16:44:58.309Z,8.20
2023-05-04T16:47:38.256Z,8.00
2023-05-04T16:50:25.387Z,8.00
2023-05-04T16:53:05.228Z,8.10
2023-05-04T16:55:52.556Z,8.20
2023-05-04T16:58:39.217Z,8.20
2023-05-04T17:01:26.475Z,8.10
2023-05-04T17:04:13.686Z,8.10
2023-05-04T17:06:53.208Z,8.10
2023-05-04T17:09:41.354Z,8.10
2023-05-04T17:12:22.225Z,8.20
2023-05-04T17:15:09.396Z,8.20
2023-05-04T17:17:49.215Z,8.20
2023-05-04T17:20:36.510Z,8.20
2023-05-04T17:23:16.323Z,8.10
2023-05-04T17:26:03.586Z,8.10
2023-05-04T17:28:44.248Z,8.00
2023-05-04T17:31:31.641Z,7.90
2023-05-04T17:34:11.251Z,7.70
2023-05-04T17:36:58.365Z,7.70
2023-05-04T17:39:38.240Z,7.60
2023-05-04T17:42:32.416Z,7.50
2023-05-04T17:45:19.236Z,7.40
2023-05-04T17:48:00.614Z,7.40
2023-05-04T17:50:47.341Z,7.30
2023-05-04T17:53:27.503Z,7.30
2023-05-04T17:56:14.245Z,7.20
2023-05-04T17:58:54.358Z,7.20
2023-05-04T18:01:41.341Z,7.20
2023-05-04T18:04:28.288Z,7.10
2023-05-04T18:07:15.453Z,7.10
2023-05-04T18:09:55.349Z,7.00
2023-05-04T18:12:43.585Z,7.00
2023-05-04T18:15:25.321Z,7.00
2023-05-04T18:18:12.414Z,7.00
2023-05-04T18:20:53.372Z,7.00
2023-05-04T18:23:41.839Z,6.90
2023-05-04T18:26:29.313Z,6.90
2023-05-04T18:29:19.217Z,6.90
2023-05-04T18:31:59.277Z,6.80
2023-05-04T18:34:51.174Z,6.80
2023-05-04T18:37:32.388Z,6.80
2023-05-04T18:40:19.417Z,6.80
2023-05-04T18:43:06.331Z,6.70
2023-05-04T18:45:46.585Z,6.70
2023-05-04T18:48:33.295Z,6.70
2023-05-04T18:51:13.563Z,6.60
2023-05-04T18:54:00.461Z,6.60
2023-05-04T18:56:40.418Z,6.60
2023-05-04T18:59:27.341Z,6.60
2023-05-04T19:02:08.326Z,6.60
2023-05-04T19:04:55.428Z,6.60
2023-05-04T19:07:42.362Z,6.60
2023-05-04T19:10:29.448Z,6.60
2023-05-04T19:13:09.442Z,6.50
2023-05-04T19:15:49.610Z,6.50
2023-05-04T19:18:36.489Z,6.40
2023-05-04T19:21:23.524Z,6.40
2023-05-04T19:24:03.329Z,6.40
2023-05-04T19:26:43.804Z,6.40
2023-05-04T19:29:30.349Z,6.40
2023-05-04T19:32:24.309Z,6.40
2023-05-04T19:35:05.380Z,6.40
2023-05-04T19:37:52.501Z,6.40
2023-05-04T19:40:32.391Z,6.30
2023-05-04T19:43:19.486Z,6.30
2023-05-04T19:45:59.444Z,6.30
2023-05-04T19:48:46.787Z,6.30
2023-05-04T19:51:26.367Z,6.30
2023-05-04T19:54:13.498Z,6.30
2023-05-04T19:56:53.401Z,6.30
2023-05-04T19:59:34.037Z,6.30
2023-05-04T20:02:20.442Z,6.20
2023-05-04T20:05:07.637Z,6.20
2023-05-04T20:07:47.491Z,6.20
2023-05-04T20:10:34.537Z,6.20
2023-05-04T20:13:15.453Z,6.20
2023-05-04T20:15:56.230Z,6.20
2023-05-04T20:18:43.416Z,6.10
2023-05-04T20:21:37.413Z,6.20
2023-05-04T20:24:25.324Z,6.10
2023-05-04T20:27:05.496Z,6.10
2023-05-04T20:29:52.507Z,6.10
2023-05-04T20:32:32.469Z,6.10
2023-05-04T20:35:19.507Z,6.10
2023-05-04T20:37:59.516Z,6.00
2023-05-04T20:40:46.943Z,6.00
2023-05-04T20:43:33.443Z,6.00
2023-05-04T20:46:13.582Z,6.00
2023-05-04T20:49:00.557Z,6.00
2023-05-04T20:51:40.591Z,5.90
2023-05-04T20:54:27.442Z,5.90
2023-05-04T20:57:07.950Z,5.90
2023-05-04T20:59:54.423Z,5.90
2023-05-04T21:02:34.956Z,5.90
2023-05-04T21:05:21.461Z,5.90
2023-05-04T21:08:01.600Z,5.80
2023-05-04T21:10:48.459Z,5.80
2023-05-04T21:13:28.586Z,5.80
2023-05-04T21:16:15.460Z,5.80
2023-05-04T21:18:55.557Z,5.70
2023-05-04T21:21:47.456Z,5.70
2023-05-04T21:24:27.589Z,5.70
2023-05-04T21:27:14.441Z,5.70
2023-05-04T21:30:01.520Z,5.70
2023-05-04T21:32:49.365Z,5.70
2023-05-04T21:35:31.510Z,5.60
2023-05-04T21:38:21.636Z,5.60
2023-05-04T21:41:01.512Z,5.60
2023-05-04T21:43:48.611Z,5.50
2023-05-04T21:46:28.611Z,5.50
2023-05-04T21:49:15.653Z,5.50
2023-05-04T21:51:55.575Z,5.50
2023-05-04T21:54:42.659Z,5.50
2023-05-04T21:57:22.724Z,5.50
2023-05-04T22:00:12.728Z,5.50
2023-05-04T22:02:53.695Z,5.50
2023-05-04T22:05:40.622Z,5.50
2023-05-04T22:08:20.559Z,5.50
2023-05-04T22:11:07.740Z,5.40
2023-05-04T22:13:47.610Z,5.40
2023-05-04T22:16:34.735Z,5.30
2023-05-04T22:19:14.519Z,5.30
2023-05-04T22:22:01.688Z,5.30
2023-05-04T22:24:42.611Z,5.30
2023-05-04T22:27:29.930Z,5.30
2023-05-04T22:30:09.788Z,5.30
2023-05-04T22:32:57.121Z,5.30
2023-05-04T22:35:38.570Z,5.20
2023-05-04T22:38:19.108Z,5.20
2023-05-04T22:41:06.606Z,5.20
2023-05-04T22:43:53.657Z,5.20
2023-05-04T22:46:33.621Z,5.20
2023-05-04T22:49:20.560Z,5.10
2023-05-04T22:52:00.946Z,5.10
2023-05-04T22:54:47.581Z,5.10
2023-05-04T22:57:27.764Z,5.10
2023-05-04T23:00:14.675Z,5.10
2023-05-04T23:02:54.798Z,5.10
2023-05-04T23:05:41.605Z,5.00
2023-05-04T23:08:21.689Z,5.10
2023-05-04T23:11:08.806Z,5.10
2023-05-04T23:13:48.745Z,5.00
2023-05-04T23:16:35.723Z,5.00
2023-05-04T23:19:15.703Z,5.00
2023-05-04T23:22:03.720Z,5.00
2023-05-04T23:24:43.784Z,5.10
2023-05-04T23:27:30.610Z,5.10
2023-05-04T23:30:10.780Z,5.10
2023-05-04T23:32:57.717Z,5.10
2023-05-04T23:35:38.142Z,5.00
2023-05-04T23:38:24.652Z,5.00
2023-05-04T23:41:05.834Z,4.90
2023-05-04T23:43:53.660Z,5.00
2023-05-04T23:46:33.712Z,5.00
2023-05-04T23:49:20.616Z,5.00
2023-05-04T23:52:00.957Z,4.90
2023-05-04T23:54:47.641Z,4.90
2023-05-04T23:57:27.818Z,4.90
